Time;durP1;ratioP1;P1;durP2;ratioP2;P2;SDS_P1;SDS_P2;PMS_P1;PMS_P2;Temp;Humidity;BMP_temperature;BMP_pressure;BME280_temperature;BME280_humidity;BME280_pressure;Samples;Min_cycle;Max_cycle;Signal;HPM_P1;HPM_P2
2022/11/09 00:01:31;;;;;;;36.50;18.73;;;;;;;6.97;100.00;99904.13;4228858;28;21460;-68
2022/11/09 00:03:59;;;;;;;35.20;18.00;;;;;;;7.04;100.00;99904.44;4253047;28;20377;-69
2022/11/09 00:06:27;;;;;;;48.43;20.17;;;;;;;6.98;100.00;99905.84;4246830;28;20410;-66
2022/11/09 00:08:54;;;;;;;42.43;19.10;;;;;;;7.03;100.00;99901.94;4243772;28;20256;-67
2022/11/09 00:11:21;;;;;;;40.07;20.67;;;;;;;6.99;100.00;99901.38;4250409;28;20306;-66
2022/11/09 00:13:47;;;;;;;39.73;19.93;;;;;;;6.89;100.00;99895.22;4235345;28;21182;-66
2022/11/09 00:16:15;;;;;;;40.90;19.87;;;;;;;6.92;100.00;99900.25;4242756;28;20837;-67
2022/11/09 00:18:46;;;;;;;43.47;20.53;;;;;;;6.87;100.00;99902.47;4248584;28;21731;-66
2022/11/09 00:21:18;;;;;;;42.50;19.53;;;;;;;6.83;100.00;99898.41;4245456;28;25643;-67
2022/11/09 00:23:44;;;;;;;34.83;19.07;;;;;;;6.82;100.00;99894.09;4246327;28;20415;-68
2022/11/09 00:26:13;;;;;;;40.70;21.13;;;;;;;6.82;100.00;99891.44;4244965;28;20236;-67
2022/11/09 00:28:40;;;;;;;44.90;19.87;;;;;;;6.85;100.00;99892.00;4251074;28;20314;-67
2022/11/09 00:31:09;;;;;;;37.20;19.63;;;;;;;6.76;100.00;99891.00;4232472;28;21036;-68
2022/11/09 00:33:36;;;;;;;43.47;18.80;;;;;;;6.89;100.00;99893.41;4229384;28;20236;-68
2022/11/09 00:36:08;;;;;;;37.23;19.53;;;;;;;6.93;100.00;99896.59;4250579;28;20225;-67
2022/11/09 00:38:35;;;;;;;38.60;19.03;;;;;;;6.92;100.00;99897.59;4236970;28;21391;-67
2022/11/09 00:41:03;;;;;;;42.50;19.50;;;;;;;6.94;100.00;99893.00;4237111;28;20767;-68
2022/11/09 00:43:30;;;;;;;40.17;19.40;;;;;;;6.84;100.00;99898.28;4251588;28;20240;-69
2022/11/09 00:45:56;;;;;;;37.13;18.33;;;;;;;6.95;100.00;99894.66;4258825;28;21756;-66
2022/11/09 00:48:23;;;;;;;36.73;18.37;;;;;;;6.91;100.00;99895.94;4240574;28;20276;-66
2022/11/09 00:50:54;;;;;;;38.67;18.90;;;;;;;6.98;100.00;99894.41;4246370;28;20222;-68
2022/11/09 00:53:22;;;;;;;40.50;18.60;;;;;;;7.06;100.00;99896.38;4256666;28;21335;-67
2022/11/09 00:56:01;;;;;;;42.87;19.67;;;;;;;7.08;100.00;99894.44;4259828;28;20352;-67
2022/11/09 00:58:30;;;;;;;43.27;19.97;;;;;;;7.11;100.00;99892.34;4243424;28;20232;-65
2022/11/09 01:00:58;;;;;;;34.17;18.00;;;;;;;7.03;100.00;99886.91;4233358;28;21053;-67
2022/11/09 01:03:25;;;;;;;37.77;18.60;;;;;;;7.05;100.00;99882.31;4231918;28;20479;-68
2022/11/09 01:05:52;;;;;;;38.73;18.97;;;;;;;7.03;100.00;99894.00;4234658;28;25309;-66
2022/11/09 01:08:18;;;;;;;40.13;18.97;;;;;;;7.04;100.00;99883.28;4248983;28;20234;-67
2022/11/09 01:10:46;;;;;;;39.23;19.03;;;;;;;7.06;100.00;99883.16;4236103;28;21148;-67
2022/11/09 01:13:15;;;;;;;43.37;19.70;;;;;;;7.01;100.00;99880.91;4246371;28;20222;-66
2022/11/09 01:15:43;;;;;;;39.83;18.53;;;;;;;6.99;100.00;99888.16;4269041;28;20252;-68
2022/11/09 01:18:10;;;;;;;39.57;19.50;;;;;;;6.98;100.00;99894.41;4262605;28;23023;-65
2022/11/09 01:20:41;;;;;;;44.17;19.03;;;;;;;6.99;100.00;99880.22;4247356;28;20329;-66
2022/11/09 01:23:08;;;;;;;43.10;18.90;;;;;;;6.97;100.00;99882.16;4250188;28;21136;-66
2022/11/09 01:25:35;;;;;;;39.00;18.77;;;;;;;7.03;100.00;99889.56;4260833;28;22950;-67
2022/11/09 01:28:02;;;;;;;42.63;21.03;;;;;;;6.97;100.00;99890.91;4237656;28;20250;-65
2022/11/09 01:30:32;;;;;;;42.93;18.83;;;;;;;6.93;100.00;99884.25;4244208;28;20241;-65
2022/11/09 01:32:58;;;;;;;33.83;18.57;;;;;;;6.96;100.00;99883.13;4236773;28;21564;-68
2022/11/09 01:35:25;;;;;;;39.13;18.90;;;;;;;6.91;100.00;99888.00;4252612;28;20234;-66
2022/11/09 01:37:51;;;;;;;40.93;19.43;;;;;;;6.88;100.00;99877.66;4251315;28;21744;-66
2022/11/09 01:40:18;;;;;;;38.93;19.80;;;;;;;6.85;100.00;99878.78;4252443;28;20357;-67
2022/11/09 01:42:44;;;;;;;39.33;18.33;;;;;;;6.92;100.00;99876.44;4232539;28;20243;-67
2022/11/09 01:45:17;;;;;;;35.73;18.23;;;;;;;6.89;100.00;99871.44;4249596;28;21708;-65
2022/11/09 01:47:47;;;;;;;45.20;20.20;;;;;;;6.88;100.00;99865.31;4247360;28;20230;-66
2022/11/09 01:50:18;;;;;;;39.50;19.70;;;;;;;6.82;100.00;99878.22;4254550;28;20381;-65
2022/11/09 01:52:47;;;;;;;41.70;19.30;;;;;;;6.72;100.00;99863.16;4269925;28;20241;-68
2022/11/09 01:55:19;;;;;;;40.83;19.43;;;;;;;6.78;100.00;99855.66;4228189;28;20372;-66
2022/11/09 01:58:08;;;;;;;40.67;19.77;;;;;;;6.73;100.00;99861.34;4242761;28;20238;-66
2022/11/09 02:00:37;;;;;;;41.23;19.17;;;;;;;6.72;100.00;99859.69;4258281;28;22152;-66
2022/11/09 02:03:08;;;;;;;46.40;19.40;;;;;;;6.69;100.00;99852.00;4266894;28;20658;-67
2022/11/09 02:05:36;;;;;;;45.17;19.90;;;;;;;6.65;100.00;99854.09;4237217;28;20244;-65
2022/11/09 02:08:04;;;;;;;46.33;20.27;;;;;;;6.63;100.00;99853.38;4242373;28;21558;-67
2022/11/09 02:10:43;;;;;;;43.93;20.47;;;;;;;6.60;100.00;99853.63;4244117;28;20954;-67
2022/11/09 02:13:11;;;;;;;46.63;20.53;;;;;;;6.67;100.00;99852.16;4253506;28;20245;-65
2022/11/09 02:15:38;;;;;;;44.53;19.67;;;;;;;6.61;100.00;99857.13;4249036;28;22127;-67
2022/11/09 02:18:11;;;;;;;41.40;19.73;;;;;;;6.60;100.00;99853.63;4232693;28;21525;-65
2022/11/09 02:20:49;;;;;;;40.73;19.93;;;;;;;6.61;100.00;99852.69;4239047;28;20411;-65
2022/11/09 02:23:16;;;;;;;41.87;20.50;;;;;;;6.60;100.00;99851.00;4240973;28;21002;-66
2022/11/09 02:25:50;;;;;;;46.97;19.63;;;;;;;6.59;100.00;99841.41;4251344;28;20291;-67
2022/11/09 02:28:16;;;;;;;42.37;19.20;;;;;;;6.52;100.00;99842.91;4257949;28;20322;-66
2022/11/09 02:30:45;;;;;;;43.67;21.23;;;;;;;6.50;100.00;99839.56;4252904;28;20239;-68
2022/11/09 02:33:12;;;;;;;44.57;20.53;;;;;;;6.49;100.00;99837.91;4235900;28;21703;-65
2022/11/09 02:35:38;;;;;;;40.40;20.10;;;;;;;6.50;100.00;99834.28;4248770;28;20336;-66
2022/11/09 02:38:07;;;;;;;44.63;20.87;;;;;;;6.46;100.00;99836.38;4252261;28;20542;-64
2022/11/09 02:40:36;;;;;;;44.03;21.40;;;;;;;6.43;100.00;99838.41;4236528;28;20308;-67
2022/11/09 02:43:04;;;;;;;42.30;20.23;;;;;;;6.36;100.00;99834.63;4251560;28;21739;-66
2022/11/09 02:45:31;;;;;;;41.60;20.53;;;;;;;6.41;100.00;99838.53;4262693;28;20229;-66
2022/11/09 02:47:57;;;;;;;43.97;20.70;;;;;;;6.40;100.00;99836.06;4231047;28;20331;-65
2022/11/09 02:50:25;;;;;;;47.47;22.10;;;;;;;6.40;100.00;99841.34;4245178;28;20230;-65
2022/11/09 02:52:51;;;;;;;39.73;19.77;;;;;;;6.34;100.00;99843.56;4249943;28;20228;-66
2022/11/09 02:55:18;;;;;;;49.93;21.80;;;;;;;6.31;100.00;99837.69;4248576;28;20235;-65
2022/11/09 02:57:44;;;;;;;49.73;22.27;;;;;;;6.37;100.00;99846.88;4234670;28;21115;-65
2022/11/09 03:00:11;;;;;;;44.47;21.67;;;;;;;6.38;100.00;99851.19;4244746;28;20412;-69
2022/11/09 03:02:38;;;;;;;46.83;21.47;;;;;;;6.38;100.00;99859.13;4251167;28;20665;-65
2022/11/09 03:05:05;;;;;;;48.40;21.30;;;;;;;6.31;100.00;99846.44;4242479;28;21068;-65
2022/11/09 03:07:31;;;;;;;44.47;20.87;;;;;;;6.40;100.00;99841.34;4246988;28;23090;-66
2022/11/09 03:09:58;;;;;;;44.17;21.27;;;;;;;6.40;100.00;99851.91;4253328;28;20234;-65
2022/11/09 03:12:30;;;;;;;44.47;20.87;;;;;;;6.38;100.00;99852.03;4257449;28;20230;-69
2022/11/09 03:15:02;;;;;;;49.00;22.53;;;;;;;6.40;100.00;99851.91;4244503;28;20226;-72
2022/11/09 03:17:30;;;;;;;48.63;22.03;;;;;;;6.44;100.00;99851.50;4247825;28;20332;-71
2022/11/09 03:19:57;;;;;;;45.47;22.37;;;;;;;6.34;100.00;99854.13;4251095;28;20226;-71
2022/11/09 03:22:23;;;;;;;51.40;22.07;;;;;;;6.44;100.00;99848.00;4249880;28;20297;-70
2022/11/09 03:24:50;;;;;;;47.13;21.80;;;;;;;6.45;100.00;99855.81;4241135;28;20230;-66
2022/11/09 03:27:16;;;;;;;43.00;21.63;;;;;;;6.49;100.00;99859.88;4236873;28;21313;-66
2022/11/09 03:29:43;;;;;;;43.23;20.43;;;;;;;6.42;100.00;99849.97;4244734;28;20230;-68
2022/11/09 03:32:09;;;;;;;49.40;21.43;;;;;;;6.42;100.00;99858.72;4244322;28;20230;-69
2022/11/09 03:34:36;;;;;;;46.00;21.93;;;;;;;6.34;100.00;99859.41;4236212;28;20298;-68
2022/11/09 03:37:03;;;;;;;45.57;21.47;;;;;;;6.31;100.00;99861.47;4244485;28;21808;-67
2022/11/09 03:39:29;;;;;;;47.07;21.80;;;;;;;6.37;100.00;99857.44;4246672;28;20671;-64
2022/11/09 03:41:55;;;;;;;48.13;22.50;;;;;;;6.33;100.00;99854.25;4249841;28;20222;-65
2022/11/09 03:44:22;;;;;;;50.50;22.57;;;;;;;6.48;100.00;99854.72;4250418;28;20234;-65
2022/11/09 03:46:48;;;;;;;51.90;23.73;;;;;;;6.47;100.00;99847.78;4247556;28;20622;-65
2022/11/09 03:49:15;;;;;;;49.20;22.30;;;;;;;6.49;100.00;99851.94;4245853;28;20238;-64
2022/11/09 03:51:41;;;;;;;49.27;22.73;;;;;;;6.45;100.00;99839.13;4235593;28;20325;-67
2022/11/09 03:54:08;;;;;;;50.37;23.07;;;;;;;6.46;100.00;99843.44;4248080;28;21122;-65
2022/11/09 03:56:34;;;;;;;45.63;20.93;;;;;;;6.46;100.00;99843.44;4236979;28;20400;-67
2022/11/09 03:59:01;;;;;;;46.93;22.27;;;;;;;6.44;100.00;99838.31;4252554;28;20277;-69
2022/11/09 04:01:28;;;;;;;45.87;21.57;;;;;;;6.37;100.00;99836.28;4232246;28;20232;-65
2022/11/09 04:03:54;;;;;;;47.97;21.43;;;;;;;6.39;100.00;99839.66;4239159;28;20235;-69
2022/11/09 04:06:21;;;;;;;48.53;22.47;;;;;;;6.27;100.00;99834.44;4250343;28;20250;-66
2022/11/09 04:08:47;;;;;;;54.13;23.13;;;;;;;6.22;100.00;99834.00;4252723;28;20600;-66
2022/11/09 04:11:17;;;;;;;43.93;21.87;;;;;;;6.45;100.00;99833.84;4236515;28;22617;-67
2022/11/09 04:13:43;;;;;;;51.23;22.70;;;;;;;6.44;100.00;99835.66;4253870;28;20230;-66
2022/11/09 04:16:10;;;;;;;51.23;22.37;;;;;;;6.42;100.00;99827.03;4252560;28;20286;-65
2022/11/09 04:18:36;;;;;;;59.57;23.27;;;;;;;6.51;100.00;99828.03;4236970;28;21755;-67
2022/11/09 04:21:03;;;;;;;51.03;22.40;;;;;;;6.33;100.00;99835.75;4242924;28;20911;-67
2022/11/09 04:23:29;;;;;;;48.90;22.30;;;;;;;6.40;100.00;99836.88;4262134;28;20299;-64
2022/11/09 04:25:58;;;;;;;49.33;22.53;;;;;;;6.34;100.00;99830.34;4248653;28;20603;-66
2022/11/09 04:28:25;;;;;;;56.50;23.87;;;;;;;6.24;100.00;99826.78;4246877;28;20226;-67
2022/11/09 04:30:51;;;;;;;47.00;22.10;;;;;;;6.20;100.00;99825.38;4252415;28;20231;-66
2022/11/09 04:33:18;;;;;;;51.80;22.80;;;;;;;6.28;100.00;99833.50;4251719;28;20235;-68
2022/11/09 04:35:45;;;;;;;54.23;24.00;;;;;;;6.19;100.00;99828.19;4237649;28;21951;-66
2022/11/09 04:38:12;;;;;;;48.57;22.77;;;;;;;6.22;100.00;99834.00;4247553;28;20681;-66
2022/11/09 04:40:39;;;;;;;50.57;22.93;;;;;;;6.32;100.00;99832.28;4224974;28;20234;-65
2022/11/09 04:43:08;;;;;;;56.47;23.70;;;;;;;6.22;100.00;99828.72;4249112;28;22779;-66
2022/11/09 04:45:34;;;;;;;55.00;24.77;;;;;;;6.25;100.00;99832.91;4246565;28;20275;-66
2022/11/09 04:48:04;;;;;;;53.93;23.87;;;;;;;6.19;100.00;99828.19;4255352;28;20393;-67
2022/11/09 04:50:31;;;;;;;52.40;23.90;;;;;;;6.26;100.00;99829.31;4250103;28;20226;-66
2022/11/09 04:53:12;;;;;;;52.63;23.33;;;;;;;6.15;100.00;99829.41;4250707;28;21257;-64
2022/11/09 04:55:39;;;;;;;51.50;24.40;;;;;;;6.13;100.00;99830.38;4255138;28;20249;-66
2022/11/09 04:58:06;;;;;;;57.13;24.90;;;;;;;6.05;100.00;99824.91;4246276;28;20246;-66
2022/11/09 05:00:33;;;;;;;52.70;24.50;;;;;;;6.12;100.00;99827.84;4245573;28;20231;-68
2022/11/09 05:03:03;;;;;;;51.97;23.70;;;;;;;6.11;100.00;99832.31;4252110;28;20233;-66
2022/11/09 05:05:32;;;;;;;55.00;23.77;;;;;;;6.18;100.00;99826.47;4253048;28;20226;-68
2022/11/09 05:07:59;;;;;;;55.17;23.77;;;;;;;6.15;100.00;99824.94;4247528;28;20234;-69
2022/11/09 05:10:25;;;;;;;56.00;25.53;;;;;;;6.03;100.00;99818.06;4250696;28;20246;-66
2022/11/09 05:13:03;;;;;;;49.87;23.53;;;;;;;6.05;100.00;99822.25;4253273;28;20226;-67
2022/11/09 05:15:30;;;;;;;56.23;23.97;;;;;;;6.04;100.00;99820.59;4254168;28;20702;-66
2022/11/09 05:17:57;;;;;;;54.80;23.63;;;;;;;6.03;100.00;99820.72;4252212;28;20838;-69
2022/11/09 05:20:23;;;;;;;58.97;25.83;;;;;;;5.82;100.00;99818.91;4235049;28;20291;-66
2022/11/09 05:25:35;;;;;;;54.40;24.57;;;;;;;5.90;100.00;99824.38;4251883;28;20727;-70
2022/11/09 05:28:01;;;;;;;52.97;23.70;;;;;;;5.89;100.00;99824.50;4248998;28;20590;-69
2022/11/09 05:30:28;;;;;;;53.33;24.73;;;;;;;5.93;100.00;99818.81;4230738;28;20241;-66
2022/11/09 05:32:54;;;;;;;53.40;25.20;;;;;;;6.01;100.00;99827.94;4246120;28;20341;-65
2022/11/09 05:35:21;;;;;;;55.90;25.77;;;;;;;5.89;100.00;99820.03;4257024;28;21608;-67
2022/11/09 05:37:48;;;;;;;59.40;26.20;;;;;;;5.96;100.00;99827.50;4251057;28;20345;-66
2022/11/09 05:40:16;;;;;;;59.83;25.60;;;;;;;5.91;100.00;99826.03;4232370;28;20311;-64
2022/11/09 05:42:43;;;;;;;63.07;25.23;;;;;;;5.91;100.00;99836.59;4242713;28;20621;-64
2022/11/09 05:45:13;;;;;;;55.57;24.97;;;;;;;5.77;100.00;99833.47;4261588;28;21247;-65
2022/11/09 05:48:02;;;;;;;55.73;24.67;;;;;;;5.91;100.00;99835.78;4250052;28;20236;-67
2022/11/09 05:50:28;;;;;;;60.30;26.23;;;;;;;5.79;100.00;99831.53;4250931;28;23136;-65
2022/11/09 05:52:57;;;;;;;59.40;26.73;;;;;;;5.86;100.00;99833.53;4259413;28;20243;-64
2022/11/09 05:55:24;;;;;;;57.77;25.00;;;;;;;5.93;100.00;99825.91;4255217;28;20376;-65
2022/11/09 05:57:51;;;;;;;61.83;25.90;;;;;;;5.86;100.00;99822.97;4227739;28;20241;-63
2022/11/09 06:00:17;;;;;;;56.27;25.73;;;;;;;5.98;100.00;99825.56;4262640;28;20412;-69
2022/11/09 06:02:44;;;;;;;63.13;26.60;;;;;;;5.91;100.00;99830.50;4263182;28;20240;-68
2022/11/09 06:05:11;;;;;;;60.73;24.70;;;;;;;6.03;100.00;99828.63;4249625;28;20300;-69
2022/11/09 06:07:37;;;;;;;68.47;25.70;;;;;;;5.89;100.00;99825.31;4249111;28;20340;-69
2022/11/09 06:10:04;;;;;;;60.97;26.80;;;;;;;6.03;100.00;99833.91;4262773;28;23505;-66
2022/11/09 06:12:31;;;;;;;59.37;25.97;;;;;;;6.01;100.00;99830.56;4285868;28;20409;-70
2022/11/09 06:14:58;;;;;;;64.20;26.80;;;;;;;5.86;100.00;99830.88;4242222;28;20320;-71
2022/11/09 06:17:24;;;;;;;54.63;25.73;;;;;;;5.98;100.00;99830.84;4268863;28;20457;-72
2022/11/09 06:19:51;;;;;;;55.33;25.23;;;;;;;6.11;100.00;99836.72;4253883;28;20231;-74
2022/11/09 06:22:18;;;;;;;59.70;25.83;;;;;;;6.13;100.00;99835.66;4259978;28;20455;-70
2022/11/09 06:24:44;;;;;;;57.43;25.77;;;;;;;6.11;100.00;99832.31;4258221;28;20295;-71
2022/11/09 06:27:11;;;;;;;54.83;24.53;;;;;;;6.16;100.00;99837.19;4255558;28;21006;-70
2022/11/09 06:29:37;;;;;;;57.30;24.17;;;;;;;6.21;100.00;99852.66;4255400;28;24292;-69
2022/11/09 06:32:04;;;;;;;55.03;25.07;;;;;;;6.25;100.00;99848.75;4278868;28;20233;-69
2022/11/09 06:34:31;;;;;;;62.63;25.77;;;;;;;6.33;100.00;99848.97;4257847;28;20306;-73
2022/11/09 06:36:57;;;;;;;52.63;24.27;;;;;;;6.41;100.00;99853.56;4243818;28;21919;-70
2022/11/09 06:39:24;;;;;;;57.07;24.53;;;;;;;6.39;100.00;99852.88;4248130;28;20248;-71
2022/11/09 06:41:50;;;;;;;55.60;25.37;;;;;;;6.33;100.00;99846.31;4254740;28;20313;-69
2022/11/09 06:44:17;;;;;;;52.53;24.57;;;;;;;6.40;100.00;99851.91;4247052;28;20345;-69
2022/11/09 06:46:43;;;;;;;55.40;24.37;;;;;;;6.44;100.00;99850.66;4246626;28;20227;-68
2022/11/09 06:50:39;;;;;;;58.07;24.87;;;;;;;6.37;100.00;99831.88;4237808;28;21010;-69
2022/11/09 06:53:08;;;;;;;61.43;26.20;;;;;;;6.34;100.00;99832.97;4176495;28;20245;-74
2022/11/09 06:55:35;;;;;;;57.90;25.50;;;;;;;6.50;100.00;99831.63;4184344;28;20310;-69
2022/11/09 06:58:10;;;;;;;66.77;26.43;;;;;;;6.55;100.00;99830.28;4178537;28;20367;-72
2022/11/09 07:00:37;;;;;;;61.33;24.13;;;;;;;6.69;100.00;99826.41;4191775;28;20419;-71
2022/11/09 07:03:03;;;;;;;56.13;24.27;;;;;;;6.67;100.00;99833.66;4185000;28;20237;-68
2022/11/09 07:05:30;;;;;;;56.90;25.50;;;;;;;6.65;100.00;99830.31;4199361;28;20287;-69
2022/11/09 07:07:57;;;;;;;60.63;25.43;;;;;;;6.70;100.00;99829.91;4192948;28;21617;-68
2022/11/09 07:10:24;;;;;;;58.13;24.97;;;;;;;6.70;100.00;99833.38;4175129;28;20305;-72
2022/11/09 07:12:50;;;;;;;60.97;25.17;;;;;;;6.82;100.00;99834.09;4191025;28;20242;-71
2022/11/09 07:15:17;;;;;;;56.17;25.33;;;;;;;6.92;100.00;99840.22;4177627;28;20244;-71
2022/11/09 07:17:44;;;;;;;54.37;24.80;;;;;;;7.00;100.00;99823.69;4171779;28;20238;-70
2022/11/09 07:20:11;;;;;;;55.93;24.87;;;;;;;7.03;100.00;99836.66;4227954;28;21340;-71
2022/11/09 07:22:38;;;;;;;56.87;24.87;;;;;;;7.09;100.00;99838.72;4193584;28;21835;-74
2022/11/09 07:25:06;;;;;;;57.77;24.83;;;;;;;7.17;100.00;99841.53;4167724;28;21587;-73
2022/11/09 07:27:33;;;;;;;61.73;25.57;;;;;;;7.26;100.00;99839.88;4187808;28;20676;-70
2022/11/09 07:29:59;;;;;;;54.37;24.70;;;;;;;7.32;100.00;99844.59;4214471;28;20230;-69
2022/11/09 07:32:26;;;;;;;59.30;24.73;;;;;;;7.37;100.00;99846.81;4188455;28;20237;-72
2022/11/09 07:35:13;;;;;;;52.07;24.43;;;;;;;7.41;100.00;99842.94;4189394;28;20612;-69
2022/11/09 07:37:39;;;;;;;59.43;23.37;;;;;;;7.38;100.00;99848.53;4180747;28;20249;-77
2022/11/09 07:40:07;;;;;;;57.60;24.87;;;;;;;7.46;100.00;99847.81;4163644;28;21690;-71
2022/11/09 07:42:33;;;;;;;57.43;25.13;;;;;;;7.41;100.00;99848.22;4194520;28;25205;-71
2022/11/09 07:45:00;;;;;;;56.67;24.60;;;;;;;7.67;100.00;99855.63;4197547;28;20240;-69
2022/11/09 07:47:26;;;;;;;56.20;24.50;;;;;;;7.81;100.00;99841.94;4186045;28;20327;-72
2022/11/09 07:49:53;;;;;;;55.30;25.00;;;;;;;7.92;100.00;99840.94;4186346;28;20238;-75
2022/11/09 07:52:19;;;;;;;59.10;24.77;;;;;;;8.11;100.00;99848.03;4163445;28;20961;-69
2022/11/09 07:54:46;;;;;;;57.03;24.00;;;;;;;8.09;100.00;99848.16;4165280;28;22460;-71
2022/11/09 07:57:17;;;;;;;56.40;25.53;;;;;;;8.23;100.00;99852.16;4180176;28;20236;-71
2022/11/09 07:59:44;;;;;;;53.93;24.77;;;;;;;8.39;100.00;99848.91;4169081;28;20231;-72
2022/11/09 08:02:10;;;;;;;55.60;23.63;;;;;;;8.61;100.00;99853.00;4175151;28;26222;-70
2022/11/09 08:04:38;;;;;;;53.63;23.83;;;;;;;8.51;100.00;99844.28;4181904;28;25364;-73
2022/11/09 08:07:05;;;;;;;64.63;25.97;;;;;;;8.68;100.00;99847.97;4180748;28;21441;-73
2022/11/09 08:09:31;;;;;;;55.30;25.00;;;;;;;8.82;99.94;99845.66;4176570;28;20250;-73
2022/11/09 08:12:00;;;;;;;53.00;23.00;;;;;;;9.04;99.28;99841.75;4174171;28;22914;-75
2022/11/09 08:14:28;;;;;;;51.77;22.80;;;;;;;9.41;97.78;99840.81;4159081;28;20768;-78
2022/11/09 08:16:55;;;;;;;48.53;22.53;;;;;;;9.77;95.16;99851.38;4191582;28;22596;-72
2022/11/09 08:19:22;;;;;;;47.43;23.30;;;;;;;10.26;92.33;99853.56;4190211;28;21208;-73
2022/11/09 08:21:48;;;;;;;44.90;22.10;;;;;;;11.00;89.99;99849.41;4171517;28;20305;-72
2022/11/09 08:24:15;;;;;;;51.80;22.20;;;;;;;11.54;84.65;99841.00;4168147;28;21566;-71
2022/11/09 08:26:42;;;;;;;48.30;22.03;;;;;;;11.62;83.75;99854.34;4173193;28;20335;-72
2022/11/09 08:29:08;;;;;;;48.20;21.50;;;;;;;11.84;82.79;99853.66;4160878;28;21219;-76
2022/11/09 08:31:35;;;;;;;46.33;21.73;;;;;;;11.76;82.51;99858.16;4211972;28;21973;-76
2022/11/09 08:34:02;;;;;;;42.23;20.03;;;;;;;12.75;79.44;99853.47;4186720;28;20738;-74
2022/11/09 08:36:30;;;;;;;45.77;22.07;;;;;;;13.26;74.70;99862.72;4185753;28;22138;-77
2022/11/09 08:38:58;;;;;;;38.40;19.50;;;;;;;13.43;73.09;99851.97;4178626;28;20234;-75
2022/11/09 08:41:24;;;;;;;43.77;19.60;;;;;;;13.81;71.30;99852.00;4167439;28;20245;-73
2022/11/09 08:43:51;;;;;;;39.97;20.50;;;;;;;13.19;73.14;99852.94;4175772;28;21752;-74
2022/11/09 08:46:18;;;;;;;42.23;20.10;;;;;;;13.46;73.07;99844.44;4219375;28;20411;-75
2022/11/09 08:48:45;;;;;;;43.53;21.20;;;;;;;14.04;69.92;99866.16;4194311;28;22160;-79
2022/11/09 08:51:12;;;;;;;43.33;20.50;;;;;;;13.31;72.30;99856.88;4151608;28;21137;-74
2022/11/09 08:53:39;;;;;;;46.90;21.43;;;;;;;13.03;74.27;99838.66;4227009;28;20662;-73
2022/11/09 08:56:06;;;;;;;42.57;21.27;;;;;;;13.09;74.18;99851.31;4179711;28;22510;-70
2022/11/09 08:58:33;;;;;;;43.93;20.80;;;;;;;12.98;75.23;99846.34;4169942;28;22642;-74
2022/11/09 09:01:00;;;;;;;42.37;21.47;;;;;;;12.35;77.20;99856.13;4148715;28;20325;-72
2022/11/09 09:03:28;;;;;;;50.13;20.80;;;;;;;12.20;78.95;99840.00;4178227;28;20265;-73
2022/11/09 09:05:54;;;;;;;45.83;21.80;;;;;;;12.87;77.35;99841.41;4177365;28;20611;-74
2022/11/09 09:08:21;;;;;;;41.67;20.17;;;;;;;14.45;70.13;99854.22;4169864;28;20499;-69
2022/11/09 09:10:49;;;;;;;39.20;19.70;;;;;;;14.59;67.44;99861.47;4212421;28;20244;-75
2022/11/09 09:13:18;;;;;;;42.33;20.50;;;;;;;14.51;67.98;99858.84;4190657;28;21646;-76
2022/11/09 09:15:47;;;;;;;40.50;19.93;;;;;;;14.12;69.04;99859.94;4161850;28;20287;-68
2022/11/09 09:18:13;;;;;;;47.23;21.43;;;;;;;13.58;71.99;99857.34;4153064;28;22165;-69
2022/11/09 09:20:40;;;;;;;44.57;21.37;;;;;;;12.91;74.63;99861.41;4156367;28;22281;-70
2022/11/09 09:23:07;;;;;;;40.80;20.90;;;;;;;12.32;78.06;99858.31;4154597;28;20245;-71
2022/11/09 09:25:33;;;;;;;48.33;21.50;;;;;;;12.16;79.60;99851.16;4169180;28;25509;-72
2022/11/09 09:28:00;;;;;;;44.97;21.50;;;;;;;11.91;80.68;99856.50;4201115;28;21488;-75
2022/11/09 09:30:27;;;;;;;39.80;21.13;;;;;;;11.99;82.00;99851.19;4207358;28;20342;-77
2022/11/09 09:33:00;;;;;;;41.30;21.13;;;;;;;12.30;80.67;99849.63;4190544;28;21867;-73
2022/11/09 09:35:28;;;;;;;44.20;21.60;;;;;;;12.38;79.73;99855.75;4159712;28;20235;-74
2022/11/09 09:37:56;;;;;;;46.90;22.07;;;;;;;12.02;81.05;99863.34;4156217;28;20247;-67
2022/11/09 09:40:34;;;;;;;47.23;21.20;;;;;;;12.34;82.01;99853.59;4157581;28;20273;-51
2022/11/09 09:43:00;;;;;;;45.53;21.47;;;;;;;12.40;80.76;99852.94;4144178;28;20401;-62
2022/11/09 09:45:31;;;;;;;39.70;20.40;;;;;;;12.28;81.49;99848.97;4144008;28;20859;-59
2022/11/09 09:48:04;;;;;;;45.87;21.27;;;;;;;12.12;82.02;99850.66;4171133;28;20240;-73
2022/11/09 09:50:37;;;;;;;44.13;21.23;;;;;;;11.90;83.27;99846.03;4187789;28;20243;-69
2022/11/09 09:53:17;;;;;;;46.33;21.77;;;;;;;11.82;84.36;99849.50;4190765;28;20326;-79
2022/11/09 09:55:55;;;;;;;44.03;21.70;;;;;;;11.50;84.44;99845.84;4155822;28;20251;-70
2022/11/09 09:58:30;;;;;;;47.40;22.00;;;;;;;11.49;85.72;99838.00;4165672;28;20246;-72
2022/11/09 10:01:14;;;;;;;50.27;22.40;;;;;;;11.54;85.14;99847.19;4145964;28;20251;-72
2022/11/09 10:03:40;;;;;;;47.67;21.10;;;;;;;11.53;85.19;99844.66;4155538;28;20227;-69
2022/11/09 10:06:13;;;;;;;47.57;22.27;;;;;;;11.66;85.13;99855.69;4178053;28;20235;-72
2022/11/09 10:08:55;;;;;;;47.30;22.13;;;;;;;11.70;84.79;99849.00;4189470;28;22554;-73
2022/11/09 10:11:45;;;;;;;51.63;21.47;;;;;;;11.42;85.81;99843.16;4149634;28;20286;-73
2022/11/09 10:14:28;;;;;;;44.70;22.13;;;;;;;11.41;85.89;99842.31;4183534;28;20396;-73
2022/11/09 10:17:13;;;;;;;43.27;21.10;;;;;;;11.41;85.44;99842.31;4161135;28;20240;-73
2022/11/09 10:19:57;;;;;;;43.77;21.00;;;;;;;11.44;85.65;99840.34;4170770;28;21036;-75
2022/11/09 10:22:48;;;;;;;45.27;22.33;;;;;;;11.41;85.13;99842.31;4202048;28;22168;-71
2022/11/09 10:25:24;;;;;;;48.93;22.77;;;;;;;11.27;86.13;99834.16;4187202;28;24813;-71
2022/11/09 10:28:14;;;;;;;42.63;20.87;;;;;;;11.32;86.55;99830.00;4151690;28;21147;-72
2022/11/09 10:30:41;;;;;;;47.50;21.90;;;;;;;11.31;86.33;99836.34;4175596;28;20273;-78
2022/11/09 10:33:10;;;;;;;44.73;22.37;;;;;;;11.36;86.14;99833.16;4173073;28;20244;-72
2022/11/09 10:35:58;;;;;;;45.40;21.73;;;;;;;11.38;86.34;99825.84;4199877;28;20234;-75
2022/11/09 10:38:37;;;;;;;43.77;20.60;;;;;;;11.48;86.87;99836.34;4175097;28;20850;-71
2022/11/09 10:41:31;;;;;;;46.63;20.97;;;;;;;11.65;86.14;99829.19;4170810;28;20256;-73
2022/11/09 10:43:58;;;;;;;46.83;22.90;;;;;;;11.80;84.74;99836.34;4152969;29;20241;-73
2022/11/09 10:46:25;;;;;;;48.33;23.10;;;;;;;11.88;84.08;99843.53;4173681;28;20239;-72
2022/11/09 10:48:53;;;;;;;43.70;22.00;;;;;;;12.02;84.07;99831.34;4163459;28;20334;-54
2022/11/09 10:51:34;;;;;;;48.50;22.20;;;;;;;11.92;84.34;99828.03;4162517;28;20695;-75
2022/11/09 10:54:26;;;;;;;38.93;20.90;;;;;;;12.15;82.99;99834.34;4161303;28;20258;-79
2022/11/09 10:57:01;;;;;;;46.70;21.87;;;;;;;12.10;83.00;99830.50;4237258;28;21953;-81
2022/11/09 10:59:38;;;;;;;45.03;21.13;;;;;;;12.16;83.52;99825.31;4170785;28;20692;-75
2022/11/09 11:02:23;;;;;;;43.00;21.63;;;;;;;12.11;83.05;99826.84;4155749;28;25416;-77
2022/11/09 11:05:15;;;;;;;40.33;20.87;;;;;;;12.01;83.57;99827.00;4152945;28;22323;-77
2022/11/09 11:07:42;;;;;;;45.93;21.17;;;;;;;11.96;84.70;99822.22;4162989;28;21533;-75
2022/11/09 11:10:14;;;;;;;42.37;21.17;;;;;;;12.14;84.46;99837.16;4148775;28;20236;-76
2022/11/09 11:12:50;;;;;;;45.50;21.80;;;;;;;12.25;83.30;99826.97;4198199;28;20243;-76
2022/11/09 11:15:31;;;;;;;47.43;22.23;;;;;;;12.19;83.84;99824.16;4158906;28;20286;-76
2022/11/09 11:18:03;;;;;;;44.37;21.20;;;;;;;12.16;83.67;99827.97;4142953;28;20230;-76
2022/11/09 11:20:34;;;;;;;43.97;21.73;;;;;;;12.23;83.84;99820.97;4153246;28;23058;-74
2022/11/09 11:23:11;;;;;;;48.27;21.40;;;;;;;12.40;82.77;99821.75;4156151;28;20234;-75
2022/11/09 11:25:57;;;;;;;45.73;22.43;;;;;;;12.44;82.80;99823.06;4153054;28;22326;-78
2022/11/09 11:28:46;;;;;;;43.90;21.30;;;;;;;12.46;82.38;99813.06;4170571;28;20348;-72
2022/11/09 11:31:15;;;;;;;43.57;21.30;;;;;;;12.65;81.53;99819.81;4149797;28;21804;-73